Time;durP1;ratioP1;P1;durP2;ratioP2;P2;SDS_P1;SDS_P2;PMS_P1;PMS_P2;Temp;Humidity;BMP_temperature;BMP_pressure;BME280_temperature;BME280_humidity;BME280_pressure;Samples;Min_cycle;Max_cycle;Signal;HPM_P1;HPM_P2
2022/04/18 00:00:51;;;;;;;;;;;;;;;;;;5086292;28;1952;-71
2022/04/18 00:03:16;;;;;;;;;;;;;;;;;;5125728;27;1170;-72
2022/04/18 00:05:42;;;;;;;;;;;;;;;;;;5107835;27;1145;-71
2022/04/18 00:08:08;;;;;;;;;;;;;;;;;;5104478;28;1393;-72
2022/04/18 00:10:33;;;;;;;;;;;;;;;;;;5104355;27;1222;-71
2022/04/18 00:12:58;;;;;;;;;;;;;;;;;;5120369;27;1170;-71
2022/04/18 00:15:26;;;;;;;;;;;;;;;;;;5123148;27;1202;-71
2022/04/18 00:17:51;;;;;;;;;;;;;;;;;;5126246;27;1147;-73
2022/04/18 00:20:17;;;;;;;;;;;;;;;;;;5125444;27;1878;-72
2022/04/18 00:22:44;;;;;;;;;;;;;;;;;;5122937;27;1284;-71
2022/04/18 00:25:13;;;;;;;;;;;;;;;;;;5128365;27;1132;-73
2022/04/18 00:27:38;;;;;;;;;;;;;;;;;;5112597;27;1194;-72
2022/04/18 00:30:04;;;;;;;;;;;;;;;;;;5113901;27;1131;-72
2022/04/18 00:32:29;;;;;;;;;;;;;;;;;;5096336;28;1209;-72
2022/04/18 00:34:54;;;;;;;;;;;;;;;;;;5117675;27;1123;-72
2022/04/18 00:37:29;;;;;;;;;;;;;;;;;;5104844;27;1273;-72
2022/04/18 00:39:54;;;;;;;;;;;;;;;;;;5124995;27;1971;-71
2022/04/18 00:42:19;;;;;;;;;;;;;;;;;;5120305;27;1238;-72
2022/04/18 00:44:45;;;;;;;;;;;;;;;;;;5121158;27;1120;-71
2022/04/18 00:47:10;;;;;;;;;;;;;;;;;;5121166;27;1163;-71
2022/04/18 00:49:35;;;;;;;;;;;;;;;;;;5113532;27;1171;-72
2022/04/18 00:52:01;;;;;;;;;;;;;;;;;;5104594;27;1164;-72
2022/04/18 00:54:27;;;;;;;;;;;;;;;;;;5105011;27;1132;-72
2022/04/18 00:56:54;;;;;;;;;;;;;;;;;;5100438;28;1198;-72
2022/04/18 00:59:20;;;;;;;;;;;;;;;;;;5102825;28;1886;-71
2022/04/18 01:01:45;;;;;;;;;;;;;;;;;;5081612;28;1209;-72
2022/04/18 01:04:11;;;;;;;;;;;;;;;;;;5109777;28;1175;-72
2022/04/18 01:06:36;;;;;;;;;;;;;;;;;;5100967;28;1164;-72
2022/04/18 01:09:02;;;;;;;;;;;;;;;;;;5104275;28;1335;-72
2022/04/18 01:11:35;;;;;;;;;;;;;;;;;;5101300;28;1265;-71
2022/04/18 01:14:02;;;;;;;;;;;;;;;;;;5105156;27;1450;-72
2022/04/18 01:16:28;;;;;;;;;;;;;;;;;;5123399;27;1206;-72
2022/04/18 01:18:55;;;;;;;;;;;;;;;;;;5085951;28;1952;-72
2022/04/18 01:21:21;;;;;;;;;;;;;;;;;;5103364;28;1288;-71
2022/04/18 01:23:47;;;;;;;;;;;;;;;;;;5104833;28;1142;-72
2022/04/18 01:28:59;;;;;;;;;;;;;;;;;;5112610;28;1055;-71
2022/04/18 01:31:39;;;;;;;;;;;;;;;;;;5103528;28;1205;-71
2022/04/18 01:34:06;;;;;;;;;;;;;;;;;;5121098;28;1309;-72
2022/04/18 01:36:35;;;;;;;;;;;;;;;;;;5123789;27;1258;-73
2022/04/18 01:39:01;;;;;;;;;;;;;;;;;;5124311;28;1973;-73
2022/04/18 01:41:27;;;;;;;;;;;;;;;;;;5123356;27;1150;-73
2022/04/18 01:43:53;;;;;;;;;;;;;;;;;;5106749;28;1136;-72
2022/04/18 01:46:18;;;;;;;;;;;;;;;;;;5123005;28;1243;-73
2022/04/18 01:48:44;;;;;;;;;;;;;;;;;;5121463;27;1230;-72
2022/04/18 01:51:09;;;;;;;;;;;;;;;;;;5124007;28;1202;-72
2022/04/18 01:53:34;;;;;;;;;;;;;;;;;;5123233;27;1313;-72
2022/04/18 01:56:00;;;;;;;;;;;;;;;;;;5118014;27;1154;-71
2022/04/18 01:58:25;;;;;;;;;;;;;;;;;;5109464;28;1314;-71
2022/04/18 02:00:50;;;;;;;;;;;;;;;;;;5102314;28;1947;-72
2022/04/18 02:03:16;;;;;;;;;;;;;;;;;;5100733;28;1309;-71
2022/04/18 02:05:42;;;;;;;;;;;;;;;;;;5106748;28;1159;-72
2022/04/18 02:08:07;;;;;;;;;;;;;;;;;;5087624;28;1415;-72
2022/04/18 02:10:32;;;;;;;;;;;;;;;;;;5088662;28;1302;-72
2022/04/18 02:12:59;;;;;;;;;;;;;;;;;;5101807;27;1313;-73
2022/04/18 02:15:24;;;;;;;;;;;;;;;;;;5122741;27;1223;-70
2022/04/18 02:17:49;;;;;;;;;;;;;;;;;;5124151;27;1174;-72
2022/04/18 02:20:14;;;;;;;;;;;;;;;;;;5127881;27;1945;-72
2022/04/18 02:22:40;;;;;;;;;;;;;;;;;;5124027;27;1175;-72
2022/04/18 02:25:05;;;;;;;;;;;;;;;;;;5126886;27;1187;-72
2022/04/18 02:27:34;;;;;;;;;;;;;;;;;;5122279;27;1304;-72
2022/04/18 02:30:00;;;;;;;;;;;;;;;;;;5112937;27;1155;-71
2022/04/18 02:35:09;;;;;;;;;;;;;;;;;;5127486;27;1035;-73
2022/04/18 02:37:35;;;;;;;;;;;;;;;;;;5123908;27;1502;-73
2022/04/18 02:40:00;;;;;;;;;;;;;;;;;;5110119;27;1913;-72
2022/04/18 02:42:29;;;;;;;;;;;;;;;;;;5105122;27;1184;-73
2022/04/18 02:44:55;;;;;;;;;;;;;;;;;;5123822;27;1191;-71
2022/04/18 02:47:22;;;;;;;;;;;;;;;;;;5102839;27;1327;-71
2022/04/18 02:49:47;;;;;;;;;;;;;;;;;;5106646;28;1022;-71
2022/04/18 02:52:12;;;;;;;;;;;;;;;;;;5105424;28;1528;-72
2022/04/18 02:54:37;;;;;;;;;;;;;;;;;;5104906;28;1387;-72
2022/04/18 02:57:03;;;;;;;;;;;;;;;;;;5121660;27;1125;-71
2022/04/18 02:59:28;;;;;;;;;;;;;;;;;;5105138;27;1935;-72
2022/04/18 03:01:53;;;;;;;;;;;;;;;;;;5123755;27;1405;-72
2022/04/18 03:04:19;;;;;;;;;;;;;;;;;;5109516;27;1343;-72
2022/04/18 03:06:44;;;;;;;;;;;;;;;;;;5120481;27;1151;-72
2022/04/18 03:09:09;;;;;;;;;;;;;;;;;;5105561;28;1204;-72
2022/04/18 03:11:35;;;;;;;;;;;;;;;;;;5103457;28;1179;-72
2022/04/18 03:14:01;;;;;;;;;;;;;;;;;;5103682;27;1140;-71
2022/04/18 03:16:26;;;;;;;;;;;;;;;;;;5125264;27;1386;-72
2022/04/18 03:18:51;;;;;;;;;;;;;;;;;;5122532;27;1215;-72
2022/04/18 03:21:17;;;;;;;;;;;;;;;;;;5128142;27;1893;-72
2022/04/18 03:23:45;;;;;;;;;;;;;;;;;;5126032;27;1324;-72
2022/04/18 03:26:13;;;;;;;;;;;;;;;;;;5123802;27;1593;-71
2022/04/18 03:28:38;;;;;;;;;;;;;;;;;;5120928;27;1267;-71
2022/04/18 03:31:04;;;;;;;;;;;;;;;;;;5125415;27;1191;-71
2022/04/18 03:33:29;;;;;;;;;;;;;;;;;;5107199;27;1161;-71
2022/04/18 03:41:22;;;;;;;;;;;;;;;;;;5124475;27;1996;-71
2022/04/18 03:43:47;;;;;;;;;;;;;;;;;;5120668;27;1142;-72
2022/04/18 03:46:13;;;;;;;;;;;;;;;;;;5125415;27;1146;-71
2022/04/18 03:48:38;;;;;;;;;;;;;;;;;;5109021;27;1374;-72
2022/04/18 03:51:03;;;;;;;;;;;;;;;;;;5124757;27;1287;-73
2022/04/18 03:53:28;;;;;;;;;;;;;;;;;;5105336;27;1346;-72
2022/04/18 03:55:54;;;;;;;;;;;;;;;;;;5125067;27;1083;-72
2022/04/18 03:58:19;;;;;;;;;;;;;;;;;;5098736;27;1527;-72
2022/04/18 04:00:44;;;;;;;;;;;;;;;;;;5121696;27;1885;-72
2022/04/18 04:03:12;;;;;;;;;;;;;;;;;;5121051;27;1431;-72
2022/04/18 04:05:39;;;;;;;;;;;;;;;;;;5122773;27;1449;-72
2022/04/18 04:08:05;;;;;;;;;;;;;;;;;;5121313;27;1229;-72
2022/04/18 04:10:30;;;;;;;;;;;;;;;;;;5107539;27;1210;-72
2022/04/18 04:12:55;;;;;;;;;;;;;;;;;;5113071;27;1174;-72
2022/04/18 04:15:20;;;;;;;;;;;;;;;;;;5125895;27;1008;-72
2022/04/18 04:17:46;;;;;;;;;;;;;;;;;;5118309;27;1155;-71
2022/04/18 04:20:11;;;;;;;;;;;;;;;;;;5123779;27;1885;-71
2022/04/18 04:22:36;;;;;;;;;;;;;;;;;;5121005;27;1103;-71
2022/04/18 04:25:02;;;;;;;;;;;;;;;;;;5122147;27;1027;-71
2022/04/18 04:27:31;;;;;;;;;;;;;;;;;;5116126;27;1143;-71
2022/04/18 04:29:57;;;;;;;;;;;;;;;;;;5121716;27;1129;-71
2022/04/18 04:32:24;;;;;;;;;;;;;;;;;;5119411;27;1200;-71
2022/04/18 04:34:50;;;;;;;;;;;;;;;;;;5105334;27;1200;-72
2022/04/18 04:37:15;;;;;;;;;;;;;;;;;;5123360;27;1421;-71
2022/04/18 04:39:41;;;;;;;;;;;;;;;;;;5115731;27;1906;-73
2022/04/18 04:42:06;;;;;;;;;;;;;;;;;;5083822;28;1405;-71
2022/04/18 04:44:31;;;;;;;;;;;;;;;;;;5100941;28;1072;-72
2022/04/18 04:46:57;;;;;;;;;;;;;;;;;;5107065;28;1242;-73
2022/04/18 04:49:22;;;;;;;;;;;;;;;;;;5105550;28;1226;-71
2022/04/18 04:51:58;;;;;;;;;;;;;;;;;;5101507;28;1160;-75
2022/04/18 04:54:24;;;;;;;;;;;;;;;;;;5126349;27;1194;-72
2022/04/18 04:56:50;;;;;;;;;;;;;;;;;;5117412;27;1171;-72
2022/04/18 04:59:16;;;;;;;;;;;;;;;;;;5105186;27;1899;-73
2022/04/18 05:01:59;;;;;;;;;;;;;;;;;;5121127;27;1265;-74
2022/04/18 05:04:27;;;;;;;;;;;;;;;;;;5116708;27;1127;-72
2022/04/18 05:06:52;;;;;;;;;;;;;;;;;;5100785;28;1171;-72
2022/04/18 05:09:17;;;;;;;;;;;;;;;;;;5086571;28;1171;-70
2022/04/18 05:11:43;;;;;;;;;;;;;;;;;;5105438;27;1381;-73
2022/04/18 05:14:08;;;;;;;;;;;;;;;;;;5120347;27;1173;-73
2022/04/18 05:16:35;;;;;;;;;;;;;;;;;;5123030;27;1325;-70
2022/04/18 05:19:01;;;;;;;;;;;;;;;;;;5103644;28;1237;-71
2022/04/18 05:21:26;;;;;;;;;;;;;;;;;;5124632;27;1897;-72
2022/04/18 05:23:51;;;;;;;;;;;;;;;;;;5105956;27;1213;-71
2022/04/18 05:26:17;;;;;;;;;;;;;;;;;;5105085;27;1179;-73
2022/04/18 05:28:42;;;;;;;;;;;;;;;;;;5121168;28;1214;-71
2022/04/18 05:31:08;;;;;;;;;;;;;;;;;;5122781;28;1289;-70
2022/04/18 05:33:33;;;;;;;;;;;;;;;;;;5104985;28;1282;-72
2022/04/18 05:35:58;;;;;;;;;;;;;;;;;;5104247;28;1132;-71
2022/04/18 05:38:23;;;;;;;;;;;;;;;;;;5105988;28;1218;-72
2022/04/18 05:40:49;;;;;;;;;;;;;;;;;;5088947;28;1975;-72
2022/04/18 05:43:15;;;;;;;;;;;;;;;;;;5082467;28;1487;-73
2022/04/18 05:45:40;;;;;;;;;;;;;;;;;;5109720;28;1178;-72
2022/04/18 05:48:06;;;;;;;;;;;;;;;;;;5117059;27;1156;-72
2022/04/18 05:50:31;;;;;;;;;;;;;;;;;;5128424;27;1163;-73
2022/04/18 05:52:56;;;;;;;;;;;;;;;;;;5127222;27;1215;-72
2022/04/18 05:55:22;;;;;;;;;;;;;;;;;;5127906;27;1306;-72
2022/04/18 05:57:52;;;;;;;;;;;;;;;;;;5120951;27;1553;-71
2022/04/18 06:00:18;;;;;;;;;;;;;;;;;;5102540;27;1894;-72
2022/04/18 06:02:43;;;;;;;;;;;;;;;;;;5096332;28;1428;-71
2022/04/18 06:05:08;;;;;;;;;;;;;;;;;;5105979;28;1394;-72
2022/04/18 06:07:34;;;;;;;;;;;;;;;;;;5107089;28;1207;-72
2022/04/18 06:09:59;;;;;;;;;;;;;;;;;;5090237;28;1458;-72
2022/04/18 06:12:28;;;;;;;;;;;;;;;;;;5102165;28;1148;-72
2022/04/18 06:14:54;;;;;;;;;;;;;;;;;;5113684;27;1241;-72
2022/04/18 06:17:20;;;;;;;;;;;;;;;;;;5106915;27;1293;-72
2022/04/18 06:19:46;;;;;;;;;;;;;;;;;;5127070;27;1967;-72
2022/04/18 06:22:11;;;;;;;;;;;;;;;;;;5124759;27;1194;-72
2022/04/18 06:24:37;;;;;;;;;;;;;;;;;;5118347;27;1223;-72
2022/04/18 06:27:02;;;;;;;;;;;;;;;;;;5099835;28;1314;-72
2022/04/18 06:29:27;;;;;;;;;;;;;;;;;;5104669;28;1214;-72
2022/04/18 06:31:56;;;;;;;;;;;;;;;;;;5102909;28;1318;-72
2022/04/18 06:34:21;;;;;;;;;;;;;;;;;;5088981;28;1274;-71
2022/04/18 06:36:46;;;;;;;;;;;;;;;;;;5107224;28;1353;-75
2022/04/18 06:39:12;;;;;;;;;;;;;;;;;;5106027;28;1977;-74
2022/04/18 06:41:37;;;;;;;;;;;;;;;;;;5103534;28;1226;-75
2022/04/18 06:44:02;;;;;;;;;;;;;;;;;;5102207;28;1246;-75
2022/04/18 06:46:28;;;;;;;;;;;;;;;;;;5088971;28;1196;-74
2022/04/18 06:48:55;;;;;;;;;;;;;;;;;;5103740;28;1179;-76
2022/04/18 06:51:20;;;;;;;;;;;;;;;;;;5087543;28;1188;-74
2022/04/18 06:53:46;;;;;;;;;;;;;;;;;;5103214;27;1301;-75
2022/04/18 06:58:55;;;;;;;;;;;;;;;;;;5120586;27;1010;-75
2022/04/18 07:01:21;;;;;;;;;;;;;;;;;;5104197;27;2002;-75
2022/04/18 07:03:46;;;;;;;;;;;;;;;;;;5124093;27;1297;-75
2022/04/18 07:06:11;;;;;;;;;;;;;;;;;;5121107;27;1286;-75
2022/04/18 07:08:37;;;;;;;;;;;;;;;;;;5104649;28;1213;-72
2022/04/18 07:11:03;;;;;;;;;;;;;;;;;;5104474;28;1296;-73
2022/04/18 07:13:29;;;;;;;;;;;;;;;;;;5099671;28;1272;-74
2022/04/18 07:15:59;;;;;;;;;;;;;;;;;;5108308;27;1160;-75
2022/04/18 07:18:24;;;;;;;;;;;;;;;;;;5104486;28;1242;-75
2022/04/18 07:20:49;;;;;;;;;;;;;;;;;;5106566;27;1952;-74
2022/04/18 07:23:14;;;;;;;;;;;;;;;;;;5089738;28;1160;-74
2022/04/18 07:25:40;;;;;;;;;;;;;;;;;;5107243;27;1147;-75
2022/04/18 07:28:05;;;;;;;;;;;;;;;;;;5116371;27;1124;-74
2022/04/18 07:30:30;;;;;;;;;;;;;;;;;;5123748;27;1257;-76
2022/04/18 07:32:59;;;;;;;;;;;;;;;;;;5099718;28;1163;-74
2022/04/18 07:35:25;;;;;;;;;;;;;;;;;;5125238;27;1171;-74
2022/04/18 07:40:34;;;;;;;;;;;;;;;;;;5127387;27;1914;-75
2022/04/18 07:42:59;;;;;;;;;;;;;;;;;;5091363;28;1204;-74
2022/04/18 07:45:24;;;;;;;;;;;;;;;;;;5104770;27;1132;-75
2022/04/18 07:47:52;;;;;;;;;;;;;;;;;;5100145;28;1179;-75
2022/04/18 07:50:17;;;;;;;;;;;;;;;;;;5103883;28;1135;-75
2022/04/18 07:52:42;;;;;;;;;;;;;;;;;;5102636;28;1140;-74
2022/04/18 07:55:08;;;;;;;;;;;;;;;;;;5110446;27;1364;-75
2022/04/18 07:57:33;;;;;;;;;;;;;;;;;;5097825;27;1368;-75
2022/04/18 08:00:01;;;;;;;;;;;;;;;;;;5103174;27;1905;-74
2022/04/18 08:02:27;;;;;;;;;;;;;;;;;;5106264;27;1174;-75
2022/04/18 08:04:52;;;;;;;;;;;;;;;;;;5104328;28;1132;-74
2022/04/18 08:07:17;;;;;;;;;;;;;;;;;;5100961;28;1216;-73
2022/04/18 08:09:43;;;;;;;;;;;;;;;;;;5104943;28;1194;-75
2022/04/18 08:12:12;;;;;;;;;;;;;;;;;;5111432;27;1151;-74
2022/04/18 08:14:37;;;;;;;;;;;;;;;;;;5122692;27;1196;-75
2022/04/18 08:17:02;;;;;;;;;;;;;;;;;;5103237;27;1339;-76
2022/04/18 08:19:28;;;;;;;;;;;;;;;;;;5121809;27;1882;-76
2022/04/18 08:21:53;;;;;;;;;;;;;;;;;;5086259;28;1293;-76
2022/04/18 08:24:19;;;;;;;;;;;;;;;;;;5118825;27;1177;-76
2022/04/18 08:26:45;;;;;;;;;;;;;;;;;;5104881;27;1313;-75
2022/04/18 08:29:11;;;;;;;;;;;;;;;;;;5090921;28;1261;-73
2022/04/18 08:31:47;;;;;;;;;;;;;;;;;;5103562;28;1413;-75
2022/04/18 08:34:13;;;;;;;;;;;;;;;;;;5111383;27;1108;-73
2022/04/18 08:36:38;;;;;;;;;;;;;;;;;;5123596;27;1304;-74
2022/04/18 08:39:03;;;;;;;;;;;;;;;;;;5112833;27;1147;-75
2022/04/18 08:41:37;;;;;;;;;;;;;;;;;;5086171;28;1963;-75
2022/04/18 08:44:03;;;;;;;;;;;;;;;;;;5103262;28;1234;-74
2022/04/18 08:46:29;;;;;;;;;;;;;;;;;;5123661;27;1506;-75
2022/04/18 08:54:26;;;;;;;;;;;;;;;;;;5123899;27;1149;-74
2022/04/18 08:56:51;;;;;;;;;;;;;;;;;;5105211;27;1456;-74
2022/04/18 08:59:17;;;;;;;;;;;;;;;;;;5122999;27;2005;-74
2022/04/18 09:01:50;;;;;;;;;;;;;;;;;;5085266;28;1368;-75
2022/04/18 09:04:16;;;;;;;;;;;;;;;;;;5101815;28;1221;-76
2022/04/18 09:06:41;;;;;;;;;;;;;;;;;;5104572;28;1226;-74
2022/04/18 09:09:07;;;;;;;;;;;;;;;;;;5102152;28;1877;-75
2022/04/18 09:11:40;;;;;;;;;;;;;;;;;;5103386;28;1178;-75
2022/04/18 09:14:09;;;;;;;;;;;;;;;;;;5084039;28;1198;-75
2022/04/18 09:16:42;;;;;;;;;;;;;;;;;;5106111;28;1154;-74
2022/04/18 09:19:09;;;;;;;;;;;;;;;;;;5123198;27;1119;-74
2022/04/18 09:21:35;;;;;;;;;;;;;;;;;;5110725;27;1983;-75
2022/04/18 09:24:00;;;;;;;;;;;;;;;;;;5108268;28;1135;-74
2022/04/18 09:26:25;;;;;;;;;;;;;;;;;;5087740;28;1294;-74
2022/04/18 09:28:51;;;;;;;;;;;;;;;;;;5121204;28;1214;-76
2022/04/18 09:31:24;;;;;;;;;;;;;;;;;;5104260;28;1285;-75
2022/04/18 09:33:56;;;;;;;;;;;;;;;;;;5121032;28;1421;-73
2022/04/18 09:36:22;;;;;;;;;;;;;;;;;;5122510;28;1294;-75
2022/04/18 09:38:52;;;;;;;;;;;;;;;;;;5122756;28;1263;-75
2022/04/18 09:41:21;;;;;;;;;;;;;;;;;;5121365;28;1905;-76
2022/04/18 09:43:48;;;;;;;;;;;;;;;;;;5109205;27;1190;-75
2022/04/18 09:46:14;;;;;;;;;;;;;;;;;;5102684;28;1068;-74
2022/04/18 09:48:40;;;;;;;;;;;;;;;;;;5083972;28;1359;-75
2022/04/18 09:51:10;;;;;;;;;;;;;;;;;;5102276;28;1254;-75
2022/04/18 09:53:37;;;;;;;;;;;;;;;;;;5104041;28;1176;-74
2022/04/18 09:56:13;;;;;;;;;;;;;;;;;;5103714;28;1338;-75
2022/04/18 09:58:38;;;;;;;;;;;;;;;;;;5100497;28;1667;-75
2022/04/18 10:01:05;;;;;;;;;;;;;;;;;;5102712;28;1885;-74
2022/04/18 10:03:31;;;;;;;;;;;;;;;;;;5097591;28;1246;-74
2022/04/18 10:05:57;;;;;;;;;;;;;;;;;;5106277;28;1159;-74
2022/04/18 10:08:22;;;;;;;;;;;;;;;;;;5102359;28;1210;-75
2022/04/18 10:10:48;;;;;;;;;;;;;;;;;;5086946;28;1174;-72
2022/04/18 10:13:13;;;;;;;;;;;;;;;;;;5099425;28;1210;-80
2022/04/18 10:15:39;;;;;;;;;;;;;;;;;;5103560;28;1152;-82
2022/04/18 10:18:05;;;;;;;;;;;;;;;;;;5114753;28;1300;-83
2022/04/18 10:20:37;;;;;;;;;;;;;;;;;;5089956;28;1902;-79
2022/04/18 10:23:03;;;;;;;;;;;;;;;;;;5107420;27;1195;-80
2022/04/18 10:25:47;;;;;;;;;;;;;;;;;;5120349;27;1163;-82
2022/04/18 10:28:17;;;;;;;;;;;;;;;;;;5123018;27;1233;-83
2022/04/18 10:31:06;;;;;;;;;;;;;;;;;;5120092;27;1294;-83
2022/04/18 10:33:31;;;;;;;;;;;;;;;;;;5113151;27;1229;-86
2022/04/18 10:36:04;;;;;;;;;;;;;;;;;;5117486;27;1144;-85
2022/04/18 10:38:44;;;;;;;;;;;;;;;;;;5116686;27;1189;-83
2022/04/18 10:41:28;;;;;;;;;;;;;;;;;;5115351;27;1902;-84
2022/04/18 10:43:53;;;;;;;;;;;;;;;;;;5116437;27;1284;-83
2022/04/18 10:46:18;;;;;;;;;;;;;;;;;;5117933;27;1312;-84
2022/04/18 10:48:53;;;;;;;;;;;;;;;;;;5102159;27;1298;-85
2022/04/18 10:51:28;;;;;;;;;;;;;;;;;;5112601;27;1092;-84
2022/04/18 10:54:15;;;;;;;;;;;;;;;;;;5110156;27;1350;-86
2022/04/18 10:56:55;;;;;;;;;;;;;;;;;;5113374;27;1273;-84
2022/04/18 10:59:27;;;;;;;;;;;;;;;;;;5112834;27;1953;-84
2022/04/18 11:01:57;;;;;;;;;;;;;;;;;;5116269;27;1171;-85
2022/04/18 11:04:23;;;;;;;;;;;;;;;;;;5117045;27;1239;-86
2022/04/18 11:06:49;;;;;;;;;;;;;;;;;;5116702;27;1293;-83
2022/04/18 11:09:21;;;;;;;;;;;;;;;;;;5107147;27;1393;-85
2022/04/18 11:11:50;;;;;;;;;;;;;;;;;;5120886;27;1178;-85
2022/04/18 11:14:26;;;;;;;;;;;;;;;;;;5120367;27;1115;-86
2022/04/18 11:16:52;;;;;;;;;;;;;;;;;;5118648;27;1159;-87
2022/04/18 11:19:19;;;;;;;;;;;;;;;;;;5112630;27;1222;-88
2022/04/18 11:21:57;;;;;;;;;;;;;;;;;;5122672;27;1320;-87
2022/04/18 11:24:36;;;;;;;;;;;;;;;;;;5123023;27;1310;-89
2022/04/18 11:27:02;;;;;;;;;;;;;;;;;;5102422;27;1280;-86
2022/04/18 11:29:29;;;;;;;;;;;;;;;;;;5125452;27;1233;-87
2022/04/18 11:31:55;;;;;;;;;;;;;;;;;;5115527;27;1173;-88
2022/04/18 11:34:24;;;;;;;;;;;;;;;;;;5103735;27;1226;-88
2022/04/18 11:36:50;;;;;;;;;;;;;;;;;;5115570;27;1360;-89
2022/04/18 11:39:26;;;;;;;;;;;;;;;;;;5118370;27;1310;-89
2022/04/18 11:42:01;;;;;;;;;;;;;;;;;;5115424;27;1212;-89
2022/04/18 11:44:26;;;;;;;;;;;;;;;;;;5109549;27;1185;-90
2022/04/18 11:46:52;;;;;;;;;;;;;;;;;;5126844;27;1291;-87
2022/04/18 11:49:26;;;;;;;;;;;;;;;;;;5118197;27;1233;-89
2022/04/18 11:51:51;;;;;;;;;;;;;;;;;;5123542;27;1289;-89
2022/04/18 11:54:24;;;;;;;;;;;;;;;;;;5119593;27;1208;-90
2022/04/18 11:56:59;;;;;;;;;;;;;;;;;;5102701;27;1196;-87
2022/04/18 11:59:28;;;;;;;;;;;;;;;;;;5114266;27;1861;-90
2022/04/18 12:07:22;;;;;;;;;;;;;;;;;;5124750;27;1067;-88
2022/04/18 12:09:48;;;;;;;;;;;;;;;;;;5127041;27;1183;-92
2022/04/18 12:12:27;;;;;;;;;;;;;;;;;;5125174;27;1235;-89
2022/04/18 12:14:52;;;;;;;;;;;;;;;;;;5120980;27;1289;-90
2022/04/18 12:17:24;;;;;;;;;;;;;;;;;;5100265;28;1175;-89
2022/04/18 12:19:52;;;;;;;;;;;;;;;;;;5097334;27;1922;-90
2022/04/18 12:22:23;;;;;;;;;;;;;;;;;;5099916;27;1193;-90
2022/04/18 12:24:49;;;;;;;;;;;;;;;;;;5126654;27;1311;-91
2022/04/18 12:27:16;;;;;;;;;;;;;;;;;;5103717;27;1504;-91
2022/04/18 12:29:41;;;;;;;;;;;;;;;;;;5104824;28;1311;-90
2022/04/18 12:32:22;;;;;;;;;;;;;;;;;;5123861;27;1214;-91
2022/04/18 12:34:48;;;;;;;;;;;;;;;;;;5122773;27;1266;-91
2022/04/18 12:37:13;;;;;;;;;;;;;;;;;;5117092;27;1226;-90
2022/04/18 12:39:38;;;;;;;;;;;;;;;;;;5120324;27;1953;-90
2022/04/18 12:42:05;;;;;;;;;;;;;;;;;;5126808;27;1369;-93
2022/04/18 12:44:30;;;;;;;;;;;;;;;;;;5128588;27;1223;-90
2022/04/18 12:46:56;;;;;;;;;;;;;;;;;;5119126;27;1209;-91
2022/04/18 12:49:25;;;;;;;;;;;;;;;;;;5108550;27;1211;-90
2022/04/18 12:51:51;;;;;;;;;;;;;;;;;;5123352;27;1251;-92
2022/04/18 12:54:27;;;;;;;;;;;;;;;;;;5128380;27;1159;-91
2022/04/18 12:56:53;;;;;;;;;;;;;;;;;;5133560;27;1267;-91
2022/04/18 12:59:25;;;;;;;;;;;;;;;;;;5121015;27;1238;-94
2022/04/18 13:01:50;;;;;;;;;;;;;;;;;;5114727;27;1202;-89
2022/04/18 13:04:26;;;;;;;;;;;;;;;;;;5130534;27;1236;-93
2022/04/18 13:06:56;;;;;;;;;;;;;;;;;;5129399;27;1312;-92
2022/04/18 13:09:25;;;;;;;;;;;;;;;;;;5130839;27;1295;-90
2022/04/18 13:11:58;;;;;;;;;;;;;;;;;;5123372;27;1198;-91
2022/04/18 13:14:28;;;;;;;;;;;;;;;;;;5116628;27;1260;-85
2022/04/18 13:17:04;;;;;;;;;;;;;;;;;;5109748;28;1178;-90
2022/04/18 13:19:29;;;;;;;;;;;;;;;;;;5131088;27;1920;-92
2022/04/18 13:21:55;;;;;;;;;;;;;;;;;;5134105;27;1152;-91
2022/04/18 13:24:29;;;;;;;;;;;;;;;;;;5115423;27;1192;-91
2022/04/18 13:26:55;;;;;;;;;;;;;;;;;;5114726;27;1245;-89
2022/04/18 13:29:29;;;;;;;;;;;;;;;;;;5117498;28;1230;-86
2022/04/18 13:31:54;;;;;;;;;;;;;;;;;;5130370;28;1368;-88
2022/04/18 13:34:20;;;;;;;;;;;;;;;;;;5109223;28;1217;-75
2022/04/18 13:36:45;;;;;;;;;;;;;;;;;;5084719;28;1238;-74
2022/04/18 13:39:14;;;;;;;;;;;;;;;;;;5101811;28;1290;-73
2022/04/18 13:41:41;;;;;;;;;;;;;;;;;;5100557;28;1941;-74
2022/04/18 13:44:07;;;;;;;;;;;;;;;;;;5101010;28;1218;-74
2022/04/18 13:46:34;;;;;;;;;;;;;;;;;;5103101;28;1041;-74
2022/04/18 13:49:00;;;;;;;;;;;;;;;;;;5101063;28;1245;-74
2022/04/18 13:51:26;;;;;;;;;;;;;;;;;;5102363;28;1215;-74
2022/04/18 13:53:52;;;;;;;;;;;;;;;;;;5102257;28;1489;-75
2022/04/18 13:56:19;;;;;;;;;;;;;;;;;;5101844;28;1307;-75
2022/04/18 13:59:11;;;;;;;;;;;;;;;;;;5120136;27;1203;-75
2022/04/18 14:01:36;;;;;;;;;;;;;;;;;;5121733;27;1917;-75
2022/04/18 14:04:02;;;;;;;;;;;;;;;;;;5087130;28;1295;-75
2022/04/18 14:06:29;;;;;;;;;;;;;;;;;;5107147;28;1171;-75
2022/04/18 14:08:55;;;;;;;;;;;;;;;;;;5106603;28;1146;-75
2022/04/18 14:11:20;;;;;;;;;;;;;;;;;;5107134;27;1293;-74
2022/04/18 14:13:55;;;;;;;;;;;;;;;;;;5105280;28;1105;-75
2022/04/18 14:21:48;;;;;;;;;;;;;;;;;;5125028;27;1909;-74
2022/04/18 14:24:13;;;;;;;;;;;;;;;;;;5119077;27;1473;-81
2022/04/18 14:26:39;;;;;;;;;;;;;;;;;;5089866;27;1292;-77
2022/04/18 14:29:08;;;;;;;;;;;;;;;;;;5123263;27;1204;-77
2022/04/18 14:31:33;;;;;;;;;;;;;;;;;;5125468;27;1159;-76
2022/04/18 14:33:59;;;;;;;;;;;;;;;;;;5120774;27;1210;-76
2022/04/18 14:36:24;;;;;;;;;;;;;;;;;;5105950;28;1378;-78
2022/04/18 14:38:53;;;;;;;;;;;;;;;;;;5109134;27;1503;-78
2022/04/18 14:41:18;;;;;;;;;;;;;;;;;;5105002;28;1935;-78
2022/04/18 14:43:44;;;;;;;;;;;;;;;;;;5109277;27;1192;-78
2022/04/18 14:46:10;;;;;;;;;;;;;;;;;;5110090;27;1184;-77
2022/04/18 14:48:35;;;;;;;;;;;;;;;;;;5112626;27;1661;-79
2022/04/18 14:51:01;;;;;;;;;;;;;;;;;;5116879;27;1133;-81
2022/04/18 14:53:27;;;;;;;;;;;;;;;;;;5125911;27;1234;-79
2022/04/18 14:55:53;;;;;;;;;;;;;;;;;;5120377;27;1238;-82
2022/04/18 14:58:18;;;;;;;;;;;;;;;;;;5095049;28;1270;-80
2022/04/18 15:00:44;;;;;;;;;;;;;;;;;;5115662;27;1925;-79
2022/04/18 15:03:09;;;;;;;;;;;;;;;;;;5113173;27;1167;-81
2022/04/18 15:05:34;;;;;;;;;;;;;;;;;;5127876;27;1057;-80
2022/04/18 15:08:03;;;;;;;;;;;;;;;;;;5120358;27;1150;-78
2022/04/18 15:10:30;;;;;;;;;;;;;;;;;;5107068;27;1255;-78
2022/04/18 15:12:56;;;;;;;;;;;;;;;;;;5107620;27;1151;-78
2022/04/18 15:15:22;;;;;;;;;;;;;;;;;;5094159;28;1271;-79
2022/04/18 15:17:48;;;;;;;;;;;;;;;;;;5106350;28;1247;-77
2022/04/18 15:20:14;;;;;;;;;;;;;;;;;;5113114;27;1955;-80
2022/04/18 15:22:39;;;;;;;;;;;;;;;;;;5121536;27;1230;-78
2022/04/18 15:25:05;;;;;;;;;;;;;;;;;;5118157;27;1296;-78
2022/04/18 15:27:33;;;;;;;;;;;;;;;;;;5106008;27;1195;-78
2022/04/18 15:32:43;;;;;;;;;;;;;;;;;;5123459;27;1208;-79
2022/04/18 15:35:08;;;;;;;;;;;;;;;;;;5120563;27;1182;-79
2022/04/18 15:37:37;;;;;;;;;;;;;;;;;;5104862;28;1295;-79
2022/04/18 15:40:03;;;;;;;;;;;;;;;;;;5107965;28;1909;-77
2022/04/18 15:42:28;;;;;;;;;;;;;;;;;;5108887;27;1399;-79
2022/04/18 15:44:57;;;;;;;;;;;;;;;;;;5110082;27;1191;-78
2022/04/18 15:47:23;;;;;;;;;;;;;;;;;;5089406;28;1342;-77
2022/04/18 15:49:48;;;;;;;;;;;;;;;;;;5120912;27;1076;-76
2022/04/18 15:52:13;;;;;;;;;;;;;;;;;;5109313;27;1392;-79
2022/04/18 15:54:39;;;;;;;;;;;;;;;;;;5094499;27;1209;-79
2022/04/18 15:57:04;;;;;;;;;;;;;;;;;;5091262;28;1196;-78
2022/04/18 15:59:29;;;;;;;;;;;;;;;;;;5105192;28;1163;-79
2022/04/18 16:01:54;;;;;;;;;;;;;;;;;;5119715;27;1939;-78
2022/04/18 16:04:20;;;;;;;;;;;;;;;;;;5090094;28;1195;-78
2022/04/18 16:06:48;;;;;;;;;;;;;;;;;;5112289;27;1243;-77
2022/04/18 16:09:16;;;;;;;;;;;;;;;;;;5112088;27;1304;-78
2022/04/18 16:11:41;;;;;;;;;;;;;;;;;;5111936;27;1287;-79
2022/04/18 16:14:07;;;;;;;;;;;;;;;;;;5119370;27;1147;-78
2022/04/18 16:16:33;;;;;;;;;;;;;;;;;;5124141;27;1029;-76
2022/04/18 16:19:01;;;;;;;;;;;;;;;;;;5091949;28;1520;-78
2022/04/18 16:21:28;;;;;;;;;;;;;;;;;;5104577;28;1967;-78
2022/04/18 16:23:53;;;;;;;;;;;;;;;;;;5111293;27;1131;-79
2022/04/18 16:26:19;;;;;;;;;;;;;;;;;;5118761;27;1272;-79
2022/04/18 16:31:52;;;;;;;;;;;;;;;;;;5123560;27;1011;-82
2022/04/18 16:34:21;;;;;;;;;;;;;;;;;;5111453;27;1225;-80
2022/04/18 16:36:47;;;;;;;;;;;;;;;;;;5099804;28;1306;-75
2022/04/18 16:39:13;;;;;;;;;;;;;;;;;;5104389;28;1219;-75
2022/04/18 16:47:13;;;;;;;;;;;;;;;;;;5111094;27;1027;-73
2022/04/18 16:49:42;;;;;;;;;;;;;;;;;;5082109;27;1172;-74
2022/04/18 16:52:08;;;;;;;;;;;;;;;;;;5102395;27;1243;-73
2022/04/18 16:54:33;;;;;;;;;;;;;;;;;;5122953;27;1155;-79
2022/04/18 16:56:58;;;;;;;;;;;;;;;;;;5100935;27;1157;-81
2022/04/18 16:59:24;;;;;;;;;;;;;;;;;;5101324;27;1300;-81
2022/04/18 17:01:52;;;;;;;;;;;;;;;;;;5116552;27;1953;-77
2022/04/18 17:04:25;;;;;;;;;;;;;;;;;;5105307;27;1252;-77
2022/04/18 17:06:53;;;;;;;;;;;;;;;;;;5117049;27;1082;-77
2022/04/18 17:09:18;;;;;;;;;;;;;;;;;;5112460;27;1344;-77
2022/04/18 17:11:44;;;;;;;;;;;;;;;;;;5101374;28;1240;-77
2022/04/18 17:14:09;;;;;;;;;;;;;;;;;;5110209;27;1266;-78
2022/04/18 17:16:34;;;;;;;;;;;;;;;;;;5106775;28;1199;-78
2022/04/18 17:19:00;;;;;;;;;;;;;;;;;;5097807;28;1314;-78
2022/04/18 17:21:25;;;;;;;;;;;;;;;;;;5105103;27;1893;-77
2022/04/18 17:23:53;;;;;;;;;;;;;;;;;;5112106;27;1096;-78
2022/04/18 17:26:18;;;;;;;;;;;;;;;;;;5121475;27;1179;-78
2022/04/18 17:29:04;;;;;;;;;;;;;;;;;;5101175;28;1211;-78
2022/04/18 17:31:29;;;;;;;;;;;;;;;;;;5107277;28;1328;-77
2022/04/18 17:33:54;;;;;;;;;;;;;;;;;;5109562;27;1349;-79
2022/04/18 17:36:19;;;;;;;;;;;;;;;;;;5120017;27;1160;-79
2022/04/18 17:38:54;;;;;;;;;;;;;;;;;;5110242;27;1152;-79
2022/04/18 17:41:22;;;;;;;;;;;;;;;;;;5124569;27;1902;-78
2022/04/18 17:44:05;;;;;;;;;;;;;;;;;;5121273;27;1200;-77
2022/04/18 17:46:32;;;;;;;;;;;;;;;;;;5113236;27;1108;-77